createdAt,value
2018-07-27T00:00:57.608Z,6.00
2018-07-27T00:03:26.149Z,6.00
2018-07-27T00:05:54.649Z,4.70
2018-07-27T00:08:23.249Z,5.20
2018-07-27T00:10:51.745Z,5.80
2018-07-27T00:13:20.209Z,5.07
2018-07-27T00:15:48.712Z,5.23
2018-07-27T00:18:17.198Z,5.80
2018-07-27T00:20:45.709Z,5.70
2018-07-27T00:23:15.898Z,4.87
2018-07-27T00:25:44.550Z,4.80
2018-07-27T00:28:13.268Z,5.20
2018-07-27T00:30:41.753Z,4.70
2018-07-27T00:33:10.345Z,5.30
2018-07-27T00:35:38.790Z,5.00
2018-07-27T00:38:07.346Z,4.87
2018-07-27T00:40:35.823Z,5.57
2018-07-27T00:43:04.366Z,5.23
2018-07-27T00:45:33.986Z,5.53
2018-07-27T00:48:02.494Z,6.27
2018-07-27T00:50:31.001Z,5.50
2018-07-27T00:53:02.603Z,5.60
2018-07-27T00:55:32.054Z,5.13
2018-07-27T00:58:00.590Z,5.60
2018-07-27T01:00:29.147Z,5.13
2018-07-27T01:02:57.677Z,5.80
2018-07-27T01:05:26.394Z,5.50
2018-07-27T01:07:54.944Z,5.40
2018-07-27T01:10:23.499Z,4.87
2018-07-27T01:12:52.038Z,5.80
2018-07-27T01:15:20.537Z,5.30
2018-07-27T01:17:49.106Z,5.97
2018-07-27T01:20:17.650Z,5.40
2018-07-27T01:22:46.375Z,5.43
2018-07-27T01:25:14.893Z,4.37
2018-07-27T01:27:44.380Z,5.90
2018-07-27T01:30:12.874Z,5.90
2018-07-27T01:32:41.454Z,5.60
2018-07-27T01:35:09.994Z,6.90
2018-07-27T01:37:38.655Z,5.13
2018-07-27T01:40:07.686Z,5.50
2018-07-27T01:42:36.705Z,5.73
2018-07-27T01:45:05.728Z,5.40
2018-07-27T01:47:34.518Z,6.33
2018-07-27T01:50:03.074Z,5.67
2018-07-27T01:52:31.569Z,6.10
2018-07-27T01:55:00.829Z,5.70
2018-07-27T01:57:29.362Z,6.30
2018-07-27T01:59:57.846Z,5.20
2018-07-27T02:02:27.210Z,5.20
2018-07-27T02:04:55.739Z,5.90
2018-07-27T02:07:24.293Z,6.07
2018-07-27T02:09:52.785Z,5.97
2018-07-27T02:12:21.278Z,6.30
2018-07-27T02:14:50.911Z,6.57
2018-07-27T02:17:20.929Z,4.90
2018-07-27T02:19:49.453Z,6.20
2018-07-27T02:22:17.605Z,4.73
2018-07-27T02:24:46.137Z,4.87
2018-07-27T02:27:14.626Z,6.50
2018-07-27T02:29:43.143Z,6.17
2018-07-27T02:32:11.726Z,5.83
2018-07-27T02:34:40.305Z,6.30
2018-07-27T02:37:08.805Z,5.20
2018-07-27T02:39:37.741Z,6.60
2018-07-27T02:42:06.235Z,5.63
2018-07-27T02:44:35.857Z,5.40
2018-07-27T02:47:04.355Z,5.77
2018-07-27T02:49:32.920Z,5.60
2018-07-27T02:52:02.073Z,6.20
2018-07-27T02:54:32.361Z,5.87
2018-07-27T02:57:01.729Z,6.23
2018-07-27T02:59:30.272Z,6.30
2018-07-27T03:01:59.023Z,6.00
2018-07-27T03:04:27.629Z,5.73
2018-07-27T03:06:56.170Z,6.90
2018-07-27T03:09:24.702Z,5.30
2018-07-27T03:11:53.187Z,6.10
2018-07-27T03:14:21.718Z,5.17
2018-07-27T03:16:50.264Z,6.10
2018-07-27T03:19:18.783Z,5.50
2018-07-27T03:21:47.296Z,5.63
2018-07-27T03:24:15.846Z,6.50
2018-07-27T03:26:45.620Z,6.10
2018-07-27T03:29:14.121Z,6.40
2018-07-27T03:31:42.605Z,5.50
2018-07-27T03:34:11.116Z,5.90
2018-07-27T03:36:39.629Z,5.40
2018-07-27T03:39:09.754Z,6.50
2018-07-27T03:41:38.282Z,6.73
2018-07-27T03:44:06.801Z,6.40
2018-07-27T03:46:35.277Z,5.47
2018-07-27T03:49:03.449Z,5.60
2018-07-27T03:51:31.906Z,6.30
2018-07-27T03:54:00.420Z,6.37
2018-07-27T03:56:28.946Z,6.00
2018-07-27T03:58:57.495Z,5.53
2018-07-27T04:01:26.028Z,5.67
2018-07-27T04:03:54.590Z,5.70
2018-07-27T04:06:23.071Z,5.73
2018-07-27T04:08:51.551Z,5.80
2018-07-27T04:11:20.031Z,6.00
2018-07-27T04:13:48.534Z,6.73
2018-07-27T04:16:17.186Z,5.60
2018-07-27T04:18:45.700Z,4.87
2018-07-27T04:21:14.204Z,6.07
2018-07-27T04:23:43.368Z,5.53
2018-07-27T04:26:11.989Z,5.80
2018-07-27T04:28:40.505Z,6.40
2018-07-27T04:31:09.018Z,5.33
2018-07-27T04:33:37.506Z,4.93
2018-07-27T04:36:07.094Z,5.97
2018-07-27T04:38:35.590Z,5.03
2018-07-27T04:41:04.162Z,5.43
2018-07-27T04:43:32.787Z,5.83
2018-07-27T04:46:01.374Z,5.60
2018-07-27T04:48:29.850Z,5.60
2018-07-27T04:50:58.429Z,5.80
2018-07-27T04:53:26.941Z,5.80
2018-07-27T04:55:55.480Z,6.03
2018-07-27T04:58:23.989Z,5.90
2018-07-27T05:00:52.833Z,6.20
2018-07-27T05:03:21.427Z,5.80
2018-07-27T05:05:49.637Z,6.07
2018-07-27T05:08:18.270Z,6.10
2018-07-27T05:10:47.716Z,6.17
2018-07-27T05:13:17.102Z,5.80
2018-07-27T05:15:46.917Z,6.50
2018-07-27T05:18:16.131Z,5.57
2018-07-27T05:20:44.654Z,4.80
2018-07-27T05:23:13.266Z,5.13
2018-07-27T05:25:41.777Z,5.13
2018-07-27T05:28:10.672Z,4.17
2018-07-27T05:30:39.153Z,4.10
2018-07-27T05:33:07.710Z,4.40
2018-07-27T05:35:36.226Z,4.70
2018-07-27T05:38:04.744Z,4.47
2018-07-27T05:40:33.285Z,5.20
2018-07-27T05:43:01.758Z,5.13
2018-07-27T05:45:30.286Z,4.23
2018-07-27T05:47:58.762Z,4.43
2018-07-27T05:50:27.248Z,4.13
2018-07-27T05:52:55.738Z,4.60
2018-07-27T05:55:24.471Z,4.47
2018-07-27T05:57:54.308Z,4.30
2018-07-27T06:00:22.835Z,4.97
2018-07-27T06:02:51.349Z,4.87
2018-07-27T06:05:20.364Z,4.70
2018-07-27T06:07:48.822Z,3.93
2018-07-27T06:10:17.873Z,4.23
2018-07-27T06:12:46.446Z,4.77
2018-07-27T06:15:15.008Z,4.50
2018-07-27T06:17:43.491Z,4.67
2018-07-27T06:20:12.009Z,4.03
2018-07-27T06:22:42.438Z,4.80
2018-07-27T06:25:12.580Z,4.80
2018-07-27T06:27:41.139Z,4.57
2018-07-27T06:30:09.713Z,3.93
2018-07-27T06:32:38.267Z,4.67
2018-07-27T06:35:06.715Z,4.47
2018-07-27T06:37:35.270Z,4.90
2018-07-27T06:40:03.892Z,4.53
2018-07-27T06:42:32.421Z,4.80
2018-07-27T06:45:01.066Z,4.50
2018-07-27T06:47:29.591Z,4.73
2018-07-27T06:49:58.088Z,4.47
2018-07-27T06:52:27.176Z,5.23
2018-07-27T06:54:57.048Z,4.00
2018-07-27T06:57:25.614Z,4.40
2018-07-27T06:59:54.105Z,4.43
2018-07-27T07:02:26.903Z,4.00
2018-07-27T07:04:55.835Z,4.30
2018-07-27T07:07:24.450Z,4.03
2018-07-27T07:09:52.987Z,5.23
2018-07-27T07:12:21.625Z,3.60
2018-07-27T07:14:50.820Z,4.00
2018-07-27T07:17:19.326Z,4.00
2018-07-27T07:19:47.782Z,3.87
2018-07-27T07:22:16.267Z,4.30
2018-07-27T07:24:44.751Z,3.60
2018-07-27T07:27:13.245Z,4.53
2018-07-27T07:29:41.813Z,3.77
2018-07-27T07:32:09.966Z,4.60
2018-07-27T07:34:39.185Z,4.30
2018-07-27T07:37:07.721Z,4.17
2018-07-27T07:39:36.320Z,4.80
2018-07-27T07:42:05.861Z,4.10
2018-07-27T07:44:34.759Z,4.20
2018-07-27T07:47:03.306Z,4.03
2018-07-27T07:49:31.821Z,4.40
2018-07-27T07:52:00.335Z,4.60
2018-07-27T07:54:28.822Z,4.50
2018-07-27T07:56:57.326Z,4.10
2018-07-27T07:59:25.891Z,4.77
2018-07-27T08:01:54.481Z,4.30
2018-07-27T08:04:23.141Z,4.17
2018-07-27T08:06:51.558Z,4.40
2018-07-27T08:09:20.070Z,4.33
2018-07-27T08:11:48.568Z,4.03
2018-07-27T08:14:17.073Z,3.80
2018-07-27T08:16:45.561Z,4.20
2018-07-27T08:19:14.084Z,3.80
2018-07-27T08:21:42.241Z,3.80
2018-07-27T08:24:10.736Z,4.20
2018-07-27T08:27:11.574Z,4.23
2018-07-27T08:29:42.366Z,3.73
2018-07-27T08:32:10.985Z,3.60
2018-07-27T08:34:39.527Z,4.10
2018-07-27T08:37:08.302Z,3.97
2018-07-27T08:39:39.990Z,4.40
2018-07-27T08:42:08.553Z,4.00
2018-07-27T08:44:38.576Z,3.77
2018-07-27T08:47:07.092Z,4.30
2018-07-27T08:49:35.700Z,3.97
2018-07-27T08:52:04.385Z,3.97
2018-07-27T08:54:33.006Z,3.67
2018-07-27T08:57:01.477Z,4.50
2018-07-27T08:59:30.875Z,4.30
2018-07-27T09:01:59.450Z,4.47
2018-07-27T09:04:28.007Z,3.57
2018-07-27T09:06:56.537Z,4.60
2018-07-27T09:09:25.641Z,3.90
2018-07-27T09:11:54.122Z,4.00
2018-07-27T09:14:22.636Z,4.37
2018-07-27T09:16:51.142Z,3.80
2018-07-27T09:19:19.709Z,4.10
2018-07-27T09:21:48.282Z,3.90
2018-07-27T09:24:16.891Z,4.27
2018-07-27T09:26:45.341Z,3.77
2018-07-27T09:29:13.866Z,4.00
2018-07-27T09:31:42.854Z,4.00
2018-07-27T09:34:11.394Z,4.30
2018-07-27T09:36:39.915Z,4.00
2018-07-27T09:39:11.508Z,3.47
2018-07-27T09:41:40.088Z,3.17
2018-07-27T09:44:09.103Z,3.80
2018-07-27T09:46:37.756Z,4.00
2018-07-27T09:49:06.211Z,3.93
2018-07-27T09:51:34.739Z,3.40
2018-07-27T09:54:03.305Z,3.33
2018-07-27T09:56:31.789Z,3.83
2018-07-27T09:59:00.273Z,3.67
2018-07-27T10:01:29.430Z,3.97
2018-07-27T10:03:57.968Z,3.80
2018-07-27T10:06:26.449Z,3.83
2018-07-27T10:08:54.955Z,3.57
2018-07-27T10:11:23.470Z,3.20
2018-07-27T10:13:51.953Z,4.17
2018-07-27T10:16:20.476Z,3.47
2018-07-27T10:18:48.957Z,4.07
2018-07-27T10:21:17.494Z,3.80
2018-07-27T10:23:46.933Z,3.47
2018-07-27T10:26:15.489Z,3.20
2018-07-27T10:28:44.797Z,4.00
2018-07-27T10:31:13.395Z,3.50
2018-07-27T10:33:41.857Z,3.60
2018-07-27T10:36:10.409Z,5.03
2018-07-27T10:38:39.026Z,3.67
2018-07-27T10:41:07.514Z,3.00
2018-07-27T10:43:37.165Z,3.40
2018-07-27T10:46:07.351Z,3.83
2018-07-27T10:48:36.672Z,3.40
2018-07-27T10:51:05.686Z,3.27
2018-07-27T10:53:36.520Z,4.33
2018-07-27T10:56:05.628Z,3.40
2018-07-27T10:58:34.643Z,3.47
2018-07-27T11:01:04.484Z,3.50
2018-07-27T11:03:33.706Z,3.60
2018-07-27T11:06:03.518Z,3.70
2018-07-27T11:08:32.566Z,2.90
2018-07-27T11:11:01.024Z,3.53
2018-07-27T11:13:30.410Z,3.87
2018-07-27T11:15:59.495Z,3.03
2018-07-27T11:18:27.978Z,3.50
2018-07-27T11:20:58.626Z,3.60
2018-07-27T11:23:27.494Z,3.30
2018-07-27T11:25:55.995Z,3.50
2018-07-27T11:28:24.532Z,3.00
2018-07-27T11:30:53.040Z,3.60
2018-07-27T11:33:22.229Z,2.50
2018-07-27T11:35:50.737Z,3.37
2018-07-27T11:38:20.488Z,3.33
2018-07-27T11:40:50.069Z,3.23
2018-07-27T11:43:20.766Z,3.03
2018-07-27T11:45:49.309Z,3.47
2018-07-27T11:48:18.036Z,3.83
2018-07-27T11:50:46.738Z,3.60
2018-07-27T11:53:15.233Z,3.90
2018-07-27T11:55:43.394Z,3.33
2018-07-27T11:58:11.917Z,4.10
2018-07-27T12:00:40.414Z,4.20
2018-07-27T12:03:08.906Z,3.20
2018-07-27T12:05:38.432Z,2.80
2018-07-27T12:10:58.521Z,3.57
2018-07-27T12:13:27.014Z,3.37
2018-07-27T12:15:55.951Z,3.87
2018-07-27T12:18:24.453Z,3.70
2018-07-27T12:20:54.057Z,3.10
2018-07-27T12:23:22.394Z,3.97
2018-07-27T12:25:50.927Z,4.00
2018-07-27T12:28:19.945Z,3.47
2018-07-27T12:30:48.945Z,3.57
2018-07-27T12:33:18.533Z,4.00
2018-07-27T12:35:47.020Z,3.67
2018-07-27T12:38:15.482Z,3.40
2018-07-27T12:40:44.073Z,3.60
2018-07-27T12:43:12.643Z,3.83
2018-07-27T12:45:41.093Z,3.87
2018-07-27T12:48:09.732Z,4.30
2018-07-27T12:50:38.193Z,4.30
2018-07-27T12:53:07.757Z,3.50
2018-07-27T12:55:37.299Z,4.30
2018-07-27T12:58:06.437Z,4.43
2018-07-27T13:00:34.918Z,3.30
2018-07-27T13:03:04.167Z,3.50
2018-07-27T13:05:32.661Z,4.13
2018-07-27T13:08:01.110Z,4.20
2018-07-27T13:10:29.590Z,3.50
2018-07-27T13:12:58.133Z,3.50
2018-07-27T13:15:26.665Z,3.70
2018-07-27T13:17:55.873Z,3.60
2018-07-27T13:21:00.455Z,3.87
2018-07-27T13:23:28.947Z,3.80
2018-07-27T13:28:44.054Z,4.10
2018-07-27T13:31:13.431Z,4.97
2018-07-27T13:33:56.056Z,4.27
2018-07-27T13:36:24.629Z,4.23
2018-07-27T13:38:53.174Z,4.17
2018-07-27T13:41:21.898Z,4.17
2018-07-27T13:43:50.943Z,4.20
2018-07-27T13:46:20.693Z,4.17
2018-07-27T13:48:50.718Z,4.73
2018-07-27T13:51:19.237Z,4.60
2018-07-27T13:53:47.716Z,4.30
2018-07-27T13:56:16.373Z,3.57
2018-07-27T13:58:44.910Z,4.20
2018-07-27T14:01:13.383Z,4.27
2018-07-27T14:03:41.877Z,4.43
2018-07-27T14:06:10.382Z,4.33
2018-07-27T14:08:39.507Z,4.00
2018-07-27T14:11:08.322Z,4.43
2018-07-27T14:13:36.909Z,4.60
2018-07-27T14:16:17.854Z,4.50
2018-07-27T14:18:46.318Z,4.50
2018-07-27T14:21:15.071Z,4.70
2018-07-27T14:23:43.782Z,4.10
2018-07-27T14:26:13.086Z,4.27
2018-07-27T14:28:42.561Z,4.20
2018-07-27T14:31:11.061Z,4.50
2018-07-27T14:33:39.577Z,4.67
2018-07-27T14:36:08.813Z,5.07
2018-07-27T14:38:38.746Z,4.00
2018-07-27T14:41:07.264Z,5.07
2018-07-27T14:43:37.515Z,4.70
2018-07-27T14:46:07.014Z,4.30
2018-07-27T14:48:37.470Z,4.20
2018-07-27T14:51:06.005Z,4.23
2018-07-27T14:53:35.470Z,4.40
2018-07-27T14:56:04.666Z,4.40
2018-07-27T14:58:33.240Z,4.50
2018-07-27T15:01:01.801Z,3.53
2018-07-27T15:03:31.501Z,4.90
2018-07-27T15:05:59.999Z,4.73
2018-07-27T15:08:28.558Z,5.20
2018-07-27T15:10:57.050Z,5.60
2018-07-27T15:13:25.869Z,5.20
2018-07-27T15:15:54.391Z,5.20
2018-07-27T15:18:22.899Z,4.60
2018-07-27T15:20:52.049Z,4.33
2018-07-27T15:23:20.513Z,4.97
2018-07-27T15:25:50.198Z,5.63
2018-07-27T15:28:19.209Z,4.90
2018-07-27T15:30:47.768Z,5.57
2018-07-27T15:33:16.202Z,4.30
2018-07-27T15:35:45.179Z,5.20
2018-07-27T15:38:13.672Z,3.90
2018-07-27T15:40:42.319Z,4.90
2018-07-27T15:43:10.806Z,5.37
2018-07-27T15:45:40.319Z,4.93
2018-07-27T15:48:10.709Z,4.40
2018-07-27T15:50:40.509Z,5.60
2018-07-27T15:53:09.029Z,6.67
2018-07-27T15:55:37.925Z,6.87
2018-07-27T15:58:06.427Z,6.50
2018-07-27T16:00:34.942Z,4.87
2018-07-27T16:03:04.450Z,5.80
2018-07-27T16:05:33.031Z,3.97
2018-07-27T16:08:01.697Z,4.77
2018-07-27T16:10:30.738Z,4.60
2018-07-27T16:12:59.703Z,4.40
2018-07-27T16:15:28.445Z,4.80
2018-07-27T16:17:57.104Z,4.83
2018-07-27T16:20:25.637Z,4.60
2018-07-27T16:22:54.101Z,4.70
2018-07-27T16:25:22.581Z,4.33
2018-07-27T16:27:52.338Z,4.00
2018-07-27T16:30:21.561Z,4.20
2018-07-27T16:32:50.042Z,4.80
2018-07-27T16:35:18.555Z,4.50
2018-07-27T16:37:47.042Z,4.70
2018-07-27T16:40:15.526Z,4.20
2018-07-27T16:42:44.693Z,4.33
2018-07-27T16:45:13.201Z,4.10
2018-07-27T16:47:42.975Z,4.00
2018-07-27T16:50:11.513Z,4.90
2018-07-27T16:52:41.931Z,5.17
2018-07-27T16:55:10.426Z,3.40
2018-07-27T16:57:39.930Z,4.57
2018-07-27T17:00:08.436Z,4.00
2018-07-27T17:02:37.209Z,4.30
2018-07-27T17:05:06.285Z,4.20
2018-07-27T17:07:34.876Z,4.17
2018-07-27T17:10:05.994Z,4.10
2018-07-27T17:12:35.135Z,4.47
2018-07-27T17:15:03.931Z,3.60
2018-07-27T17:17:33.312Z,4.77
2018-07-27T17:20:01.847Z,4.50
2018-07-27T17:22:31.033Z,4.07
2018-07-27T17:24:59.653Z,4.43
2018-07-27T17:27:28.113Z,4.70
2018-07-27T17:29:56.593Z,4.37
2018-07-27T17:32:25.246Z,4.67
2018-07-27T17:34:53.801Z,4.27
2018-07-27T17:37:22.316Z,4.07
2018-07-27T17:39:50.806Z,4.93
2018-07-27T17:42:19.406Z,4.47
2018-07-27T17:44:47.907Z,5.00
2018-07-27T17:47:17.172Z,5.20
2018-07-27T17:49:45.942Z,4.20
2018-07-27T17:52:14.418Z,4.53
2018-07-27T17:54:42.892Z,4.93
2018-07-27T17:57:12.186Z,4.47
2018-07-27T17:59:40.670Z,4.63
2018-07-27T18:02:09.200Z,3.50
2018-07-27T18:04:38.648Z,4.37
2018-07-27T18:07:07.358Z,4.60
2018-07-27T18:09:35.730Z,5.03
2018-07-27T18:12:04.247Z,4.83
2018-07-27T18:14:34.566Z,4.20
2018-07-27T18:17:07.503Z,4.23
2018-07-27T18:19:36.370Z,4.03
2018-07-27T18:22:04.996Z,4.30
2018-07-27T18:24:33.513Z,4.10
2018-07-27T18:27:02.810Z,4.07
2018-07-27T18:29:31.310Z,4.73
2018-07-27T18:31:59.942Z,4.83
2018-07-27T18:34:29.295Z,4.67
2018-07-27T18:36:57.776Z,4.10
2018-07-27T18:39:33.308Z,4.13
2018-07-27T18:42:02.970Z,4.53
2018-07-27T18:44:32.531Z,4.37
2018-07-27T18:47:02.339Z,4.93
2018-07-27T18:49:32.446Z,4.00
2018-07-27T18:52:00.902Z,5.03
2018-07-27T18:54:29.370Z,5.00
2018-07-27T18:56:58.009Z,4.40
2018-07-27T18:59:26.501Z,4.13
2018-07-27T19:01:54.974Z,5.30
2018-07-27T19:04:24.308Z,5.13
2018-07-27T19:06:53.510Z,4.43
2018-07-27T19:09:25.366Z,5.00
2018-07-27T19:11:53.898Z,4.67
2018-07-27T19:14:22.365Z,4.93
2018-07-27T19:16:52.437Z,5.37
2018-07-27T19:19:20.888Z,5.30
2018-07-27T19:21:49.433Z,5.50
2018-07-27T19:24:17.888Z,5.30
2018-07-27T19:26:47.024Z,4.90
2018-07-27T19:29:18.657Z,5.07
2018-07-27T19:31:47.154Z,4.90
2018-07-27T19:34:15.666Z,4.90
2018-07-27T19:36:45.575Z,5.40
2018-07-27T19:39:14.154Z,5.80
2018-07-27T19:41:43.010Z,5.30
2018-07-27T19:44:11.919Z,5.57
2018-07-27T19:46:40.407Z,5.00
2018-07-27T19:49:10.952Z,6.20
2018-07-27T19:51:40.084Z,5.70
2018-07-27T19:54:08.781Z,5.97
2018-07-27T19:56:41.810Z,6.30
2018-07-27T19:59:10.954Z,6.23
2018-07-27T20:01:39.432Z,6.30
2018-07-27T20:04:07.945Z,5.87
2018-07-27T20:06:37.687Z,5.60
2018-07-27T20:09:08.425Z,5.90
2018-07-27T20:11:36.924Z,5.83
2018-07-27T20:14:05.490Z,5.50
2018-07-27T20:16:34.090Z,6.40
2018-07-27T20:19:03.291Z,5.47
2018-07-27T20:21:31.817Z,6.07
2018-07-27T20:24:00.258Z,5.90
2018-07-27T20:26:28.758Z,6.10
2018-07-27T20:28:57.172Z,6.37
2018-07-27T20:31:25.651Z,5.80
2018-07-27T20:33:54.913Z,7.30
2018-07-27T20:36:23.546Z,7.10
2018-07-27T20:38:53.614Z,6.40
2018-07-27T20:41:22.193Z,6.20
2018-07-27T20:43:50.777Z,6.17
2018-07-27T20:46:19.566Z,7.17
2018-07-27T20:48:48.083Z,6.20
2018-07-27T20:51:17.131Z,6.37
2018-07-27T20:53:45.633Z,6.60
2018-07-27T20:56:14.098Z,6.97
2018-07-27T20:58:42.254Z,5.97
2018-07-27T21:01:10.729Z,6.57
2018-07-27T21:03:40.403Z,7.13
2018-07-27T21:06:08.919Z,6.60
2018-07-27T21:08:38.043Z,7.07
2018-07-27T21:11:06.648Z,7.33
2018-07-27T21:13:36.460Z,7.53
2018-07-27T21:16:05.526Z,7.10
2018-07-27T21:18:35.277Z,7.47
2018-07-27T21:21:09.941Z,6.93
2018-07-27T21:23:39.060Z,6.83
2018-07-27T21:26:08.660Z,7.10
2018-07-27T21:28:41.027Z,7.10
2018-07-27T21:31:12.053Z,7.20
2018-07-27T21:33:41.302Z,8.73
2018-07-27T21:36:09.764Z,6.47
2018-07-27T21:38:38.405Z,6.90
2018-07-27T21:41:07.191Z,7.53
2018-07-27T21:43:37.446Z,7.67
2018-07-27T21:46:14.524Z,7.67
2018-07-27T21:48:43.150Z,8.33
2018-07-27T21:51:12.989Z,7.37
2018-07-27T21:53:41.533Z,6.90
2018-07-27T21:56:10.555Z,7.70
2018-07-27T21:58:39.026Z,8.07
2018-07-27T22:01:08.018Z,6.77
2018-07-27T22:03:39.201Z,7.00
2018-07-27T22:06:07.730Z,7.07
2018-07-27T22:08:37.226Z,7.43
2018-07-27T22:11:05.703Z,7.80
2018-07-27T22:13:34.154Z,6.83
2018-07-27T22:16:02.630Z,6.80
2018-07-27T22:18:31.066Z,6.93
2018-07-27T22:20:59.502Z,8.27
2018-07-27T22:23:28.014Z,8.67
2018-07-27T22:25:56.506Z,7.57
2018-07-27T22:28:24.958Z,7.67
2018-07-27T22:30:53.415Z,7.63
2018-07-27T22:33:21.896Z,8.67
2018-07-27T22:35:50.432Z,6.83
2018-07-27T22:38:19.733Z,7.97
2018-07-27T22:40:50.370Z,7.90
2018-07-27T22:43:18.795Z,7.70
2018-07-27T22:45:53.672Z,7.90
2018-07-27T22:48:22.307Z,7.47
2018-07-27T22:50:51.148Z,8.27
2018-07-27T22:53:20.038Z,7.10
2018-07-27T22:55:48.554Z,8.37
2018-07-27T22:58:17.043Z,7.00
2018-07-27T23:00:45.597Z,7.10
2018-07-27T23:03:15.838Z,17.33
2018-07-27T23:05:46.470Z,8.40
2018-07-27T23:08:14.925Z,8.10
2018-07-27T23:10:43.181Z,7.63
2018-07-27T23:13:15.598Z,7.37
2018-07-27T23:15:44.088Z,7.40
2018-07-27T23:18:12.591Z,7.50
2018-07-27T23:20:41.582Z,7.60
2018-07-27T23:23:10.179Z,7.80
2018-07-27T23:25:38.623Z,8.23
2018-07-27T23:28:07.194Z,8.60
2018-07-27T23:30:35.742Z,7.67
2018-07-27T23:33:04.393Z,7.70
2018-07-27T23:35:32.917Z,7.87
2018-07-27T23:38:01.552Z,7.70
2018-07-27T23:40:30.039Z,8.57
2018-07-27T23:42:59.219Z,7.53
2018-07-27T23:45:27.707Z,8.03
2018-07-27T23:47:56.437Z,7.90
2018-07-27T23:50:24.909Z,8.27
2018-07-27T23:52:55.993Z,8.43
2018-07-27T23:55:25.036Z,7.73
2018-07-27T23:57:53.530Z,9.87
